Time;durP1;ratioP1;P1;durP2;ratioP2;P2;SDS_P1;SDS_P2;PMS_P1;PMS_P2;Temp;Humidity;BMP_temperature;BMP_pressure;BME280_temperature;BME280_humidity;BME280_pressure;Samples;Min_cycle;Max_cycle;Signal;HPM_P1;HPM_P2
2023/12/01 00:00:05;;;;;;;118.70;32.63;;;0.50;99.90;;;;;;5108133;27;20040;-77
2023/12/01 00:02:32;;;;;;;121.53;32.60;;;0.50;99.90;;;;;;5080952;28;20043;-77
2023/12/01 00:04:58;;;;;;;105.77;28.37;;;0.50;99.90;;;;;;5070541;28;20034;-78
2023/12/01 00:07:24;;;;;;;104.03;27.57;;;0.50;99.90;;;;;;5076494;28;20039;-76
2023/12/01 00:09:52;;;;;;;100.67;25.67;;;0.50;99.90;;;;;;5077119;28;20043;-79
2023/12/01 00:12:18;;;;;;;105.53;28.77;;;0.50;99.90;;;;;;5064252;28;20035;-78
2023/12/01 00:14:45;;;;;;;116.43;30.30;;;0.50;99.90;;;;;;5076200;28;20031;-79
2023/12/01 00:17:11;;;;;;;125.77;30.30;;;0.50;99.90;;;;;;5071398;28;20347;-79
2023/12/01 00:19:37;;;;;;;103.17;28.53;;;0.40;99.90;;;;;;5080806;28;20027;-78
2023/12/01 00:22:04;;;;;;;140.47;35.07;;;0.40;99.90;;;;;;5052586;28;20032;-77
2023/12/01 00:24:30;;;;;;;126.97;33.00;;;0.50;99.90;;;;;;5085099;28;20054;-78
2023/12/01 00:26:56;;;;;;;127.40;30.03;;;0.50;99.90;;;;;;5076931;28;20031;-80
2023/12/01 00:29:23;;;;;;;144.03;33.27;;;0.50;99.90;;;;;;5093153;28;20054;-80
2023/12/01 00:31:49;;;;;;;111.33;29.17;;;0.40;99.90;;;;;;5093970;28;20028;-79
2023/12/01 00:34:15;;;;;;;116.27;29.57;;;0.50;99.90;;;;;;5093438;28;20050;-76
2023/12/01 00:36:41;;;;;;;171.07;39.07;;;0.50;99.90;;;;;;5094556;28;20028;-78
2023/12/01 00:39:08;;;;;;;137.80;34.53;;;0.50;99.90;;;;;;5084534;28;20062;-79
2023/12/01 00:41:34;;;;;;;141.37;35.60;;;0.50;99.90;;;;;;5093868;28;20036;-78
2023/12/01 00:44:01;;;;;;;129.50;33.97;;;0.50;99.90;;;;;;5075668;28;20028;-76
2023/12/01 00:46:27;;;;;;;114.80;28.27;;;0.40;99.90;;;;;;5056404;28;20047;-78
2023/12/01 00:48:54;;;;;;;130.43;31.30;;;0.40;99.90;;;;;;5062952;28;20499;-79
2023/12/01 00:51:21;;;;;;;124.60;31.47;;;0.40;99.90;;;;;;5056910;28;20055;-77
2023/12/01 00:53:48;;;;;;;119.60;28.57;;;0.50;99.90;;;;;;5068673;28;20044;-78
2023/12/01 00:56:15;;;;;;;140.27;33.30;;;0.40;99.90;;;;;;5057396;28;20028;-78
2023/12/01 00:58:42;;;;;;;135.07;31.90;;;0.50;99.90;;;;;;5088825;28;20347;-79
2023/12/01 01:01:08;;;;;;;146.47;35.63;;;0.50;99.90;;;;;;5064171;28;20034;-78
2023/12/01 01:03:35;;;;;;;138.93;36.50;;;0.50;99.90;;;;;;5093765;28;20036;-79
2023/12/01 01:06:03;;;;;;;147.77;37.08;;;0.50;99.90;;;;;;5111919;27;20040;-77
2023/12/01 01:08:30;;;;;;;139.03;34.60;;;0.40;99.90;;;;;;5076435;28;20038;-78
2023/12/01 01:10:57;;;;;;;130.10;29.93;;;0.40;99.90;;;;;;5079133;28;20032;-79
2023/12/01 01:13:26;;;;;;;119.50;28.75;;;0.40;99.90;;;;;;5082818;28;20458;-79
2023/12/01 01:15:53;;;;;;;145.90;37.67;;;0.50;99.90;;;;;;5108223;27;20532;-79
2023/12/01 01:18:20;;;;;;;140.73;33.27;;;0.40;99.90;;;;;;5069933;28;20510;-79
2023/12/01 01:20:47;;;;;;;150.57;34.47;;;0.40;99.90;;;;;;5075574;27;20308;-80
2023/12/01 01:23:14;;;;;;;132.87;30.93;;;0.40;99.90;;;;;;5082025;28;20035;-79
2023/12/01 01:25:40;;;;;;;155.53;38.37;;;0.40;99.90;;;;;;5091460;27;20035;-80
2023/12/01 01:28:07;;;;;;;151.70;36.70;;;0.40;99.90;;;;;;5078187;28;20050;-78
2023/12/01 01:30:34;;;;;;;156.77;37.07;;;0.40;99.90;;;;;;5076574;28;20049;-78
2023/12/01 01:33:00;;;;;;;193.33;44.33;;;0.40;99.90;;;;;;5072446;28;20497;-79
2023/12/01 01:35:26;;;;;;;174.43;39.60;;;0.40;99.90;;;;;;5072712;28;20040;-79
2023/12/01 01:37:53;;;;;;;174.50;42.97;;;0.40;99.90;;;;;;5072240;28;20393;-79
2023/12/01 01:40:19;;;;;;;169.27;39.57;;;0.40;99.90;;;;;;5071620;28;20032;-79
2023/12/01 01:42:45;;;;;;;148.20;38.33;;;0.40;99.90;;;;;;5052639;28;20050;-78
2023/12/01 01:45:12;;;;;;;192.60;42.97;;;0.40;99.90;;;;;;5053748;28;20474;-80
2023/12/01 01:47:38;;;;;;;166.97;39.17;;;0.40;99.90;;;;;;5110023;27;20453;-80
2023/12/01 01:50:08;;;;;;;141.47;34.93;;;0.40;99.90;;;;;;5061013;28;20038;-78
2023/12/01 01:52:36;;;;;;;146.30;35.30;;;0.40;99.90;;;;;;5070939;28;20066;-77
2023/12/01 01:55:03;;;;;;;167.73;40.10;;;0.50;99.90;;;;;;5051726;28;20054;-80
2023/12/01 01:57:37;;;;;;;170.15;38.38;;;0.50;99.90;;;;;;5081455;28;20486;-80
2023/12/01 02:00:05;;;;;;;167.83;41.60;;;0.50;99.90;;;;;;5069953;28;20040;-80
2023/12/01 02:02:39;;;;;;;171.93;41.57;;;0.50;99.90;;;;;;5065689;28;20056;-79
2023/12/01 02:05:12;;;;;;;150.33;38.70;;;0.60;99.90;;;;;;5076185;28;20035;-77
2023/12/01 02:07:40;;;;;;;175.17;42.33;;;0.60;99.90;;;;;;5093857;28;20032;-79
2023/12/01 02:10:07;;;;;;;161.00;38.60;;;0.60;99.90;;;;;;5069091;28;20385;-77
2023/12/01 02:12:33;;;;;;;179.97;42.13;;;0.60;99.90;;;;;;5070758;28;20036;-79
2023/12/01 02:15:00;;;;;;;169.40;42.40;;;0.60;99.90;;;;;;5075853;28;20486;-79
2023/12/01 02:17:26;;;;;;;176.83;43.13;;;0.60;99.90;;;;;;5075649;28;20032;-79
2023/12/01 02:19:53;;;;;;;141.33;35.53;;;0.60;99.90;;;;;;5076337;28;20039;-79
2023/12/01 02:22:20;;;;;;;165.83;41.13;;;0.60;99.90;;;;;;5069872;28;20028;-79
2023/12/01 02:24:46;;;;;;;174.10;43.67;;;0.60;99.90;;;;;;5073662;28;20098;-79
2023/12/01 02:27:13;;;;;;;163.07;40.40;;;0.60;99.90;;;;;;5076726;28;20057;-78
2023/12/01 02:29:39;;;;;;;170.07;42.17;;;0.60;99.90;;;;;;5080440;28;20046;-80
2023/12/01 02:32:07;;;;;;;148.07;36.80;;;0.60;99.90;;;;;;5077082;28;20039;-79
2023/12/01 02:34:34;;;;;;;138.60;36.73;;;0.70;99.90;;;;;;5095297;28;20028;-80
2023/12/01 02:37:00;;;;;;;124.73;35.77;;;0.70;99.90;;;;;;5095067;28;20047;-80
2023/12/01 02:39:27;;;;;;;123.17;34.87;;;0.70;99.90;;;;;;5084723;28;20036;-77
2023/12/01 02:41:53;;;;;;;131.20;36.30;;;0.70;99.90;;;;;;5066026;28;20042;-79
2023/12/01 02:44:19;;;;;;;123.47;31.63;;;0.80;99.90;;;;;;5063077;28;20040;-79
2023/12/01 02:46:46;;;;;;;126.40;32.93;;;0.80;99.90;;;;;;5089927;28;20047;-80
2023/12/01 02:49:12;;;;;;;145.50;35.43;;;0.80;99.90;;;;;;5067525;28;20039;-80
2023/12/01 02:51:38;;;;;;;140.77;39.40;;;0.80;99.90;;;;;;5067616;28;20332;-80
2023/12/01 02:54:04;;;;;;;137.70;39.93;;;0.80;99.90;;;;;;5074621;28;20392;-78
2023/12/01 02:56:31;;;;;;;135.30;38.70;;;0.80;99.90;;;;;;5092600;28;20067;-80
2023/12/01 02:58:57;;;;;;;114.83;31.40;;;0.80;99.90;;;;;;5072016;28;20054;-78
2023/12/01 03:01:24;;;;;;;114.87;32.63;;;0.80;99.90;;;;;;5079293;28;20024;-81
2023/12/01 03:03:51;;;;;;;128.37;36.80;;;0.90;99.90;;;;;;5077022;28;20509;-79
2023/12/01 03:06:18;;;;;;;112.40;31.42;;;0.90;99.90;;;;;;5096933;28;20036;-80
2023/12/01 03:08:46;;;;;;;101.00;31.23;;;0.90;99.90;;;;;;5076998;28;20032;-79
2023/12/01 03:11:12;;;;;;;108.80;33.00;;;0.90;99.90;;;;;;5095284;28;20032;-80
2023/12/01 03:13:38;;;;;;;122.17;33.90;;;0.90;99.90;;;;;;5072437;28;20032;-78
2023/12/01 03:16:05;;;;;;;113.37;33.57;;;1.00;99.90;;;;;;5082307;27;20393;-78
2023/12/01 03:18:31;;;;;;;99.63;30.97;;;1.00;99.90;;;;;;5069287;28;20042;-79
2023/12/01 03:20:58;;;;;;;118.37;34.80;;;1.00;99.90;;;;;;5074537;28;20039;-79
2023/12/01 03:23:24;;;;;;;125.90;35.63;;;1.00;99.90;;;;;;5081020;28;20046;-79
2023/12/01 03:25:51;;;;;;;112.67;33.00;;;1.00;99.90;;;;;;5077116;28;20036;-79
2023/12/01 03:28:17;;;;;;;112.07;34.60;;;1.00;99.90;;;;;;5081490;28;20039;-77
2023/12/01 03:30:43;;;;;;;124.70;35.80;;;1.10;99.90;;;;;;5071943;28;20024;-79
2023/12/01 03:33:12;;;;;;;115.77;33.63;;;1.10;99.90;;;;;;5075586;28;20039;-77
2023/12/01 03:35:38;;;;;;;92.37;28.83;;;1.10;99.90;;;;;;5073754;28;20044;-78
2023/12/01 03:38:05;;;;;;;106.30;32.00;;;1.10;99.90;;;;;;5087087;28;20042;-79
2023/12/01 03:40:31;;;;;;;114.83;33.20;;;1.10;99.90;;;;;;5081523;28;20031;-80
2023/12/01 03:42:57;;;;;;;106.83;31.83;;;1.10;99.90;;;;;;5073745;28;20588;-78
2023/12/01 03:45:24;;;;;;;103.70;31.27;;;1.10;99.90;;;;;;5094045;28;20032;-79
2023/12/01 03:47:51;;;;;;;117.68;34.13;;;1.10;99.90;;;;;;5076878;28;20252;-79
2023/12/01 03:50:20;;;;;;;118.70;31.57;;;1.10;99.90;;;;;;5064358;28;20059;-80
2023/12/01 03:52:48;;;;;;;120.03;33.10;;;1.10;99.90;;;;;;5076626;28;20040;-80
2023/12/01 03:55:15;;;;;;;108.90;31.50;;;1.10;99.90;;;;;;5071027;28;20040;-78
2023/12/01 03:57:42;;;;;;;114.97;31.93;;;1.10;99.90;;;;;;5077633;28;20039;-78
2023/12/01 04:00:13;;;;;;;110.10;32.00;;;1.10;99.90;;;;;;5073100;28;20036;-78
2023/12/01 04:02:41;;;;;;;109.93;32.47;;;1.10;99.90;;;;;;5096895;28;20035;-79
2023/12/01 04:05:17;;;;;;;109.53;31.70;;;1.10;99.90;;;;;;5089943;28;20421;-79
2023/12/01 04:07:50;;;;;;;100.63;30.07;;;1.20;99.90;;;;;;5094258;28;20044;-78
2023/12/01 04:10:16;;;;;;;117.17;34.30;;;1.10;99.90;;;;;;5078215;28;20028;-80
2023/12/01 04:12:44;;;;;;;114.47;30.70;;;1.10;99.90;;;;;;5078131;28;20032;-79
2023/12/01 04:15:17;;;;;;;119.60;33.57;;;1.20;99.90;;;;;;5094529;27;20374;-79
2023/12/01 04:17:46;;;;;;;120.27;35.50;;;1.20;99.90;;;;;;5087060;27;20114;-79
2023/12/01 04:20:27;;;;;;;119.43;34.43;;;1.20;99.90;;;;;;5061784;28;20246;-79
2023/12/01 04:22:56;;;;;;;107.17;32.10;;;1.20;99.90;;;;;;5092931;28;20032;-79
2023/12/01 04:25:23;;;;;;;110.70;33.27;;;1.20;99.90;;;;;;5085282;28;20036;-77
2023/12/01 04:27:51;;;;;;;110.20;33.87;;;1.20;99.90;;;;;;5081408;28;20062;-80
2023/12/01 04:30:17;;;;;;;106.50;29.30;;;1.20;99.90;;;;;;5077663;28;20051;-79
2023/12/01 04:32:54;;;;;;;92.63;28.30;;;1.20;99.90;;;;;;5074853;28;20051;-80
2023/12/01 04:35:32;;;;;;;109.37;31.67;;;1.20;99.90;;;;;;5083752;28;20035;-80
2023/12/01 04:37:59;;;;;;;102.47;30.60;;;1.30;99.90;;;;;;5070589;28;20043;-78
2023/12/01 04:40:27;;;;;;;129.93;35.73;;;1.20;99.90;;;;;;5107133;27;20035;-79
2023/12/01 04:42:55;;;;;;;117.40;32.87;;;1.20;99.90;;;;;;5078866;28;20050;-78
2023/12/01 04:45:24;;;;;;;132.70;37.97;;;1.30;99.90;;;;;;5078045;28;20032;-79
2023/12/01 04:47:52;;;;;;;118.13;35.33;;;1.30;99.90;;;;;;5087711;28;20043;-78
2023/12/01 04:50:27;;;;;;;134.37;39.70;;;1.30;99.90;;;;;;5081321;28;20028;-78
2023/12/01 04:52:58;;;;;;;147.27;43.33;;;1.20;99.90;;;;;;5068453;28;20042;-79
2023/12/01 04:55:27;;;;;;;131.27;37.23;;;1.20;99.90;;;;;;5069503;28;20043;-79
2023/12/01 04:57:56;;;;;;;120.07;35.58;;;1.20;99.90;;;;;;5077161;28;20044;-78
2023/12/01 05:00:25;;;;;;;139.13;42.47;;;1.20;99.90;;;;;;5091297;28;20126;-80
2023/12/01 05:03:00;;;;;;;119.80;36.43;;;1.20;99.90;;;;;;5074573;28;20046;-80
2023/12/01 05:05:31;;;;;;;135.40;39.93;;;1.20;99.90;;;;;;5110623;27;20045;-79
2023/12/01 05:07:59;;;;;;;119.50;35.37;;;1.20;99.90;;;;;;5094769;28;20035;-80
2023/12/01 05:10:30;;;;;;;146.32;41.65;;;1.20;99.90;;;;;;5071532;28;20028;-79
2023/12/01 05:13:05;;;;;;;92.63;31.63;;;1.20;99.90;;;;;;5076700;28;20485;-79
2023/12/01 05:15:33;;;;;;;108.90;33.77;;;1.20;99.90;;;;;;5081030;28;20042;-80
2023/12/01 05:18:01;;;;;;;126.30;36.97;;;1.20;99.90;;;;;;5074489;28;20035;-79
2023/12/01 05:20:28;;;;;;;109.00;32.43;;;1.20;99.90;;;;;;5092539;28;20020;-80
2023/12/01 05:23:05;;;;;;;111.33;35.17;;;1.20;99.90;;;;;;5108284;27;20039;-80
2023/12/01 05:25:35;;;;;;;120.70;34.63;;;1.20;99.90;;;;;;5090898;28;20505;-81
2023/12/01 05:28:04;;;;;;;120.00;35.33;;;1.20;99.90;;;;;;5095618;28;20035;-80
2023/12/01 05:30:33;;;;;;;126.67;37.70;;;1.20;99.90;;;;;;5098620;28;20498;-79
2023/12/01 05:33:00;;;;;;;116.40;33.33;;;1.30;99.90;;;;;;5073018;28;20028;-80
2023/12/01 05:35:27;;;;;;;126.68;35.03;;;1.30;99.90;;;;;;5074849;28;20040;-77
2023/12/01 05:37:55;;;;;;;127.23;38.37;;;1.30;99.90;;;;;;5091619;28;20039;-79
2023/12/01 05:40:25;;;;;;;141.13;44.17;;;1.30;99.90;;;;;;5087837;28;20043;-76
2023/12/01 05:42:54;;;;;;;133.23;39.57;;;1.30;99.90;;;;;;5078652;28;20050;-78
2023/12/01 05:45:21;;;;;;;132.10;41.27;;;1.20;99.90;;;;;;5089424;28;20047;-78
2023/12/01 05:47:50;;;;;;;125.70;38.70;;;1.20;99.90;;;;;;5075214;28;20036;-81
2023/12/01 05:50:24;;;;;;;123.73;37.40;;;1.20;99.90;;;;;;5076934;28;20517;-79
2023/12/01 05:52:56;;;;;;;126.80;36.80;;;1.20;99.90;;;;;;5083653;28;20062;-79
2023/12/01 05:55:24;;;;;;;149.60;42.53;;;1.20;99.90;;;;;;5101556;27;20040;-77
2023/12/01 05:57:56;;;;;;;140.80;40.37;;;1.20;99.90;;;;;;5073229;28;20046;-79
2023/12/01 06:00:26;;;;;;;96.57;32.20;;;1.20;99.90;;;;;;5075545;28;20038;-81
2023/12/01 06:02:54;;;;;;;83.40;29.60;;;1.10;99.90;;;;;;5100513;27;20046;-74
2023/12/01 06:05:21;;;;;;;86.53;28.37;;;1.10;99.90;;;;;;5087268;27;20059;-78
2023/12/01 06:07:54;;;;;;;78.70;28.33;;;1.10;99.90;;;;;;5097861;27;20040;-76
2023/12/01 06:10:22;;;;;;;68.00;24.47;;;1.00;99.90;;;;;;5091943;27;20317;-75
2023/12/01 06:12:48;;;;;;;66.63;22.50;;;1.00;99.90;;;;;;5096363;27;20190;-80
2023/12/01 06:15:17;;;;;;;66.23;23.00;;;1.00;99.90;;;;;;5089591;27;20380;-79
2023/12/01 06:17:48;;;;;;;73.13;23.30;;;1.00;99.90;;;;;;5106450;27;20510;-78
2023/12/01 06:20:19;;;;;;;68.37;24.00;;;1.00;99.90;;;;;;5081008;27;20505;-79
2023/12/01 06:22:56;;;;;;;68.53;23.30;;;1.00;99.90;;;;;;5075542;27;20039;-77
2023/12/01 06:25:27;;;;;;;61.97;20.93;;;1.00;99.90;;;;;;5065325;28;20032;-81
2023/12/01 06:27:57;;;;;;;65.67;23.53;;;1.00;99.90;;;;;;5086951;28;20282;-76
2023/12/01 06:30:26;;;;;;;71.03;23.00;;;1.10;99.90;;;;;;5079832;28;20027;-78
2023/12/01 06:32:52;;;;;;;62.03;23.67;;;1.10;99.90;;;;;;5076691;28;20043;-81
2023/12/01 06:35:20;;;;;;;64.30;22.97;;;1.00;99.90;;;;;;5099131;27;20474;-81
2023/12/01 06:37:47;;;;;;;57.10;20.57;;;1.00;99.90;;;;;;5089594;28;20422;-82
2023/12/01 06:40:20;;;;;;;62.37;23.00;;;0.90;99.90;;;;;;5080134;28;20497;-80
2023/12/01 06:42:50;;;;;;;64.80;22.13;;;0.90;99.90;;;;;;5081995;28;20040;-81
2023/12/01 06:45:18;;;;;;;57.90;20.93;;;0.90;99.90;;;;;;5084955;28;20032;-81
2023/12/01 06:47:47;;;;;;;63.57;23.13;;;0.90;99.90;;;;;;5078825;28;20035;-82
2023/12/01 06:50:15;;;;;;;72.07;25.17;;;1.00;99.90;;;;;;5089784;28;20071;-79
2023/12/01 06:52:43;;;;;;;62.10;22.20;;;0.90;99.90;;;;;;5090268;27;20024;-78
2023/12/01 06:55:10;;;;;;;65.10;22.23;;;0.90;99.90;;;;;;5117101;27;20503;-82
2023/12/01 06:57:47;;;;;;;71.43;24.23;;;0.90;99.90;;;;;;5082274;28;20035;-79
2023/12/01 07:00:29;;;;;;;66.38;22.65;;;1.00;99.90;;;;;;5073563;28;20031;-79
2023/12/01 07:02:57;;;;;;;68.68;24.83;;;0.90;99.90;;;;;;5080670;28;20621;-83
2023/12/01 07:05:27;;;;;;;65.57;21.90;;;0.90;99.90;;;;;;5062694;28;20036;-82
2023/12/01 07:07:56;;;;;;;61.80;25.80;;;0.90;99.90;;;;;;5114852;27;20028;-80
2023/12/01 07:10:23;;;;;;;59.70;21.97;;;0.80;99.90;;;;;;5057799;28;20574;-77
2023/12/01 07:12:50;;;;;;;69.33;23.53;;;0.80;99.90;;;;;;5093293;28;20042;-80
2023/12/01 07:15:20;;;;;;;57.00;21.93;;;0.70;99.90;;;;;;5075975;28;20051;-78
2023/12/01 07:17:55;;;;;;;58.40;20.87;;;0.70;99.90;;;;;;5096905;27;20062;-79
2023/12/01 07:20:23;;;;;;;57.37;21.17;;;0.70;99.90;;;;;;5092586;28;20050;-82
2023/12/01 07:22:51;;;;;;;62.03;21.47;;;0.70;99.90;;;;;;5095636;27;20039;-81
2023/12/01 07:25:22;;;;;;;53.00;19.87;;;0.70;99.90;;;;;;5056092;28;20504;-79
2023/12/01 07:27:56;;;;;;;50.30;19.40;;;0.60;99.90;;;;;;5074374;28;20067;-82
2023/12/01 07:30:23;;;;;;;57.00;20.27;;;0.60;99.90;;;;;;5062163;28;20459;-79
2023/12/01 07:32:50;;;;;;;55.63;21.03;;;0.60;99.90;;;;;;5072901;28;20047;-82
2023/12/01 07:35:16;;;;;;;59.47;21.47;;;0.60;99.90;;;;;;5080241;28;20047;-81
2023/12/01 07:37:44;;;;;;;56.13;19.13;;;0.50;99.90;;;;;;5093199;28;20044;-80
2023/12/01 07:40:12;;;;;;;59.90;20.40;;;0.50;99.90;;;;;;5054625;28;20028;-80
2023/12/01 07:42:39;;;;;;;60.27;21.40;;;0.60;99.90;;;;;;5076673;28;20042;-79
2023/12/01 07:45:07;;;;;;;56.00;20.53;;;0.50;99.90;;;;;;5095882;28;20043;-78
2023/12/01 07:47:34;;;;;;;53.13;20.63;;;0.50;99.90;;;;;;5082432;28;20711;-78
2023/12/01 07:50:01;;;;;;;50.90;20.00;;;0.50;99.90;;;;;;5067334;28;20511;-79
2023/12/01 07:52:31;;;;;;;51.03;19.97;;;0.50;99.90;;;;;;5070097;28;20032;-81
2023/12/01 07:54:59;;;;;;;49.93;19.60;;;0.50;99.90;;;;;;5072672;28;20435;-81
2023/12/01 07:57:25;;;;;;;56.20;19.90;;;0.50;99.90;;;;;;5083286;28;20039;-80
2023/12/01 07:59:52;;;;;;;47.30;19.00;;;0.40;99.90;;;;;;5093587;28;20479;-80
2023/12/01 08:02:18;;;;;;;49.60;19.60;;;0.40;99.90;;;;;;5096486;28;20402;-80
2023/12/01 08:04:44;;;;;;;48.77;18.77;;;0.40;99.90;;;;;;5056088;28;20042;-77
2023/12/01 08:07:11;;;;;;;44.10;17.90;;;0.40;99.90;;;;;;5070009;28;20062;-82
2023/12/01 08:09:37;;;;;;;50.30;20.27;;;0.30;99.90;;;;;;5077313;28;20043;-81
2023/12/01 08:12:04;;;;;;;49.47;19.43;;;0.30;99.90;;;;;;5086497;28;20027;-80
2023/12/01 08:14:30;;;;;;;49.10;19.97;;;0.30;99.90;;;;;;5063617;28;20040;-79
2023/12/01 08:16:57;;;;;;;48.73;18.47;;;0.40;99.90;;;;;;5078517;28;20507;-80
2023/12/01 08:19:23;;;;;;;50.67;18.43;;;0.40;99.90;;;;;;5063752;28;20416;-82
2023/12/01 08:21:50;;;;;;;44.70;18.97;;;0.40;99.90;;;;;;5078296;28;20430;-81
2023/12/01 08:24:23;;;;;;;42.97;16.97;;;0.40;99.90;;;;;;5091843;28;20046;-79
2023/12/01 08:26:50;;;;;;;37.67;16.10;;;0.40;99.90;;;;;;5092953;27;20036;-79
2023/12/01 08:29:17;;;;;;;43.67;17.07;;;0.30;99.90;;;;;;5069694;28;20040;-79
2023/12/01 08:31:45;;;;;;;42.27;17.40;;;0.30;99.90;;;;;;5079848;28;20055;-81
2023/12/01 08:34:11;;;;;;;41.47;16.13;;;0.30;99.90;;;;;;5077949;28;20031;-78
2023/12/01 08:36:37;;;;;;;39.13;15.23;;;0.30;99.90;;;;;;5092931;28;20043;-79
2023/12/01 08:39:04;;;;;;;40.30;15.53;;;0.30;99.90;;;;;;5090864;28;20031;-82
2023/12/01 08:41:30;;;;;;;46.67;17.00;;;0.30;99.90;;;;;;5059549;28;20043;-77
2023/12/01 08:43:56;;;;;;;41.60;16.73;;;0.30;99.90;;;;;;5085524;28;20054;-74
2023/12/01 08:46:23;;;;;;;43.47;18.77;;;0.20;99.90;;;;;;5079172;28;20027;-78
2023/12/01 08:48:50;;;;;;;36.77;15.73;;;0.20;99.90;;;;;;5082545;28;20032;-77
2023/12/01 08:51:16;;;;;;;45.10;18.00;;;0.20;99.90;;;;;;5067282;28;20038;-78
2023/12/01 08:53:42;;;;;;;42.17;17.57;;;0.20;99.90;;;;;;5086164;28;20050;-80
2023/12/01 08:56:09;;;;;;;37.57;15.30;;;0.30;99.90;;;;;;5091124;28;20062;-79
2023/12/01 08:58:36;;;;;;;41.97;17.20;;;0.40;99.90;;;;;;5093337;28;20557;-78
2023/12/01 09:01:02;;;;;;;34.97;15.20;;;0.40;99.90;;;;;;5091791;28;20032;-78
2023/12/01 09:03:29;;;;;;;43.00;15.93;;;0.50;99.90;;;;;;5077984;28;20047;-79
2023/12/01 09:05:55;;;;;;;39.70;16.03;;;0.50;99.90;;;;;;5070735;28;20497;-80
2023/12/01 09:08:22;;;;;;;42.10;15.97;;;0.50;99.90;;;;;;5075543;28;20043;-78
2023/12/01 09:10:48;;;;;;;38.30;14.93;;;0.50;99.90;;;;;;5068892;28;20043;-79
2023/12/01 09:13:14;;;;;;;40.17;16.20;;;0.50;99.90;;;;;;5068713;28;20043;-80
2023/12/01 09:15:41;;;;;;;46.87;17.87;;;0.60;99.90;;;;;;5107496;27;20035;-78
2023/12/01 09:18:07;;;;;;;39.20;14.40;;;0.60;99.90;;;;;;5094030;27;20028;-79
2023/12/01 09:20:33;;;;;;;34.37;14.97;;;0.60;99.90;;;;;;5060588;28;20031;-80
2023/12/01 09:23:00;;;;;;;35.47;16.30;;;0.60;99.90;;;;;;5086961;28;20031;-80
2023/12/01 09:25:26;;;;;;;41.67;16.67;;;0.70;99.90;;;;;;5079490;28;20035;-78
2023/12/01 09:27:53;;;;;;;42.70;16.87;;;0.70;99.90;;;;;;5076064;28;20426;-82
2023/12/01 09:30:19;;;;;;;48.63;19.03;;;0.70;99.90;;;;;;5071975;28;20044;-76
2023/12/01 09:32:46;;;;;;;43.40;15.80;;;0.70;99.90;;;;;;5092102;28;20023;-81
2023/12/01 09:35:12;;;;;;;39.77;16.10;;;0.70;99.90;;;;;;5071350;28;20036;-80
2023/12/01 09:37:38;;;;;;;41.23;16.47;;;0.80;99.90;;;;;;5083527;28;20046;-79
2023/12/01 09:40:06;;;;;;;36.80;16.33;;;0.80;99.90;;;;;;5072632;28;20051;-77
2023/12/01 09:42:33;;;;;;;43.63;18.40;;;0.80;99.90;;;;;;5073895;28;20048;-80
2023/12/01 09:45:00;;;;;;;37.10;16.00;;;0.80;99.90;;;;;;5091348;28;20048;-80
2023/12/01 09:47:32;;;;;;;38.30;15.60;;;0.70;99.90;;;;;;5067985;28;20039;-78
2023/12/01 09:49:58;;;;;;;36.80;15.47;;;0.70;99.90;;;;;;5068172;28;20501;-76
2023/12/01 09:52:24;;;;;;;40.53;15.77;;;0.80;99.90;;;;;;5076156;28;20028;-81
2023/12/01 09:54:51;;;;;;;35.27;14.87;;;0.90;99.90;;;;;;5073182;28;20662;-79
2023/12/01 09:57:18;;;;;;;33.63;14.70;;;1.00;99.90;;;;;;5092702;28;20042;-78
2023/12/01 09:59:47;;;;;;;34.90;15.57;;;1.10;99.90;;;;;;5075783;28;20038;-77
2023/12/01 10:02:13;;;;;;;30.50;13.87;;;1.10;99.90;;;;;;5070390;28;20379;-77
2023/12/01 10:04:40;;;;;;;32.80;14.00;;;1.00;99.90;;;;;;5066860;28;20043;-79
2023/12/01 10:07:07;;;;;;;33.03;13.57;;;1.00;99.90;;;;;;5077136;28;20023;-79
2023/12/01 10:09:33;;;;;;;34.17;14.60;;;1.00;99.90;;;;;;5079623;28;20035;-80
2023/12/01 10:12:08;;;;;;;32.40;13.93;;;1.00;99.90;;;;;;5106735;27;20036;-77
2023/12/01 10:14:41;;;;;;;38.17;15.23;;;0.90;99.90;;;;;;5070610;28;20570;-79
2023/12/01 10:17:10;;;;;;;31.03;14.70;;;0.90;99.90;;;;;;5061928;28;20040;-77
2023/12/01 10:19:48;;;;;;;32.03;14.63;;;0.90;99.90;;;;;;5074602;28;20035;-81
2023/12/01 10:22:20;;;;;;;28.43;12.20;;;0.90;99.90;;;;;;5092903;28;20051;-77
2023/12/01 10:24:56;;;;;;;33.10;13.60;;;0.80;99.90;;;;;;5070874;28;20430;-77
2023/12/01 10:27:23;;;;;;;35.37;13.87;;;0.80;99.90;;;;;;5093036;28;20375;-80
2023/12/01 10:29:49;;;;;;;40.57;17.50;;;0.90;99.90;;;;;;5065200;28;20023;-77
2023/12/01 10:32:18;;;;;;;34.80;14.87;;;0.90;99.90;;;;;;5070869;28;20032;-80
2023/12/01 10:34:52;;;;;;;36.13;14.20;;;0.90;99.90;;;;;;5093596;28;20047;-78
2023/12/01 10:37:20;;;;;;;33.37;14.67;;;0.90;99.90;;;;;;5107954;27;20046;-81
2023/12/01 10:39:49;;;;;;;40.80;15.93;;;1.00;99.90;;;;;;5079817;28;20410;-78
2023/12/01 10:42:16;;;;;;;33.00;14.17;;;0.90;99.90;;;;;;5110746;27;20536;-76
2023/12/01 10:44:45;;;;;;;34.37;14.40;;;1.00;99.90;;;;;;5074238;28;20023;-79
2023/12/01 10:47:12;;;;;;;37.97;15.87;;;1.00;99.90;;;;;;5098641;28;20428;-79
2023/12/01 10:49:40;;;;;;;39.60;17.00;;;1.00;99.90;;;;;;5076962;28;20043;-78
2023/12/01 10:52:09;;;;;;;36.97;16.80;;;1.10;99.90;;;;;;5073871;28;20054;-79
2023/12/01 10:54:37;;;;;;;35.17;15.53;;;1.00;99.90;;;;;;5067897;28;20028;-79
2023/12/01 10:57:33;;;;;;;37.93;15.27;;;1.00;99.90;;;;;;5097335;28;20032;-80
2023/12/01 11:00:01;;;;;;;31.07;14.03;;;1.00;99.90;;;;;;5076175;28;20039;-79
2023/12/01 11:02:29;;;;;;;32.93;13.30;;;1.10;99.90;;;;;;5098295;28;20513;-78
2023/12/01 11:04:57;;;;;;;35.77;15.23;;;1.10;99.90;;;;;;5095709;28;20046;-78
2023/12/01 11:08:02;;;;;;;36.50;15.13;;;1.20;99.90;;;;;;5075597;28;20482;-80
2023/12/01 11:10:42;;;;;;;40.30;16.13;;;1.20;99.90;;;;;;5086729;28;20036;-78
2023/12/01 11:14:07;;;;;;;35.80;15.17;;;1.20;99.90;;;;;;5081739;27;20051;-78
2023/12/01 11:16:34;;;;;;;34.00;15.37;;;1.20;99.90;;;;;;4991347;28;20092;-79
2023/12/01 11:19:00;;;;;;;33.53;13.83;;;1.20;99.90;;;;;;4999486;28;20508;-79
2023/12/01 11:21:28;;;;;;;35.00;14.57;;;1.30;99.90;;;;;;4985796;28;20046;-79
2023/12/01 11:23:55;;;;;;;36.00;14.33;;;1.30;99.90;;;;;;4988151;28;20030;-78
2023/12/01 11:26:26;;;;;;;43.87;17.03;;;1.30;99.90;;;;;;4999882;28;20045;-78
2023/12/01 11:29:04;;;;;;;40.13;15.97;;;1.20;99.90;;;;;;4986506;28;20513;-78
2023/12/01 11:34:00;;;;;;;38.70;16.03;;;1.20;99.90;;;;;;4987981;28;20042;-77
2023/12/01 11:36:31;;;;;;;42.07;17.23;;;1.20;99.90;;;;;;4968450;28;20034;-78
2023/12/01 11:41:41;;;;;;;37.23;16.63;;;1.20;99.90;;;;;;4999962;28;20090;-78
2023/12/01 11:44:24;;;;;;;47.23;19.67;;;1.20;99.90;;;;;;4985251;28;20133;-77
2023/12/01 11:46:57;;;;;;;44.80;17.90;;;1.10;99.90;;;;;;5025123;28;20044;-77
2023/12/01 11:49:24;;;;;;;38.60;17.07;;;1.00;99.90;;;;;;5090350;28;20395;-79
2023/12/01 11:51:50;;;;;;;44.27;18.73;;;1.00;99.90;;;;;;5077183;28;20035;-74
2023/12/01 11:54:17;;;;;;;38.83;17.73;;;1.00;99.90;;;;;;5081044;28;20062;-75
2023/12/01 11:56:51;;;;;;;40.00;17.20;;;1.00;99.90;;;;;;5082782;28;20039;-81
2023/12/01 11:59:19;;;;;;;40.97;18.80;;;1.00;99.90;;;;;;5077410;28;20070;-78
2023/12/01 12:01:46;;;;;;;35.70;16.27;;;1.00;99.90;;;;;;5090149;28;20499;-78
2023/12/01 12:04:16;;;;;;;35.77;15.70;;;1.00;99.90;;;;;;5095978;28;20031;-78
2023/12/01 12:06:46;;;;;;;39.07;16.53;;;1.00;99.90;;;;;;5091049;28;20035;-76
2023/12/01 12:09:19;;;;;;;39.87;16.63;;;1.00;99.90;;;;;;5095053;28;20588;-77
2023/12/01 12:11:53;;;;;;;36.40;17.97;;;1.00;99.90;;;;;;5105792;27;20035;-79
2023/12/01 12:14:23;;;;;;;45.33;19.40;;;1.00;99.90;;;;;;5082588;28;20042;-81
2023/12/01 12:16:50;;;;;;;43.60;18.90;;;1.00;99.90;;;;;;5077734;28;20042;-85
2023/12/01 12:19:17;;;;;;;44.73;19.17;;;1.00;99.90;;;;;;5091483;28;20036;-80
2023/12/01 12:21:44;;;;;;;46.97;18.93;;;0.90;99.90;;;;;;5061710;28;20032;-78
2023/12/01 12:24:11;;;;;;;44.97;19.23;;;1.00;99.90;;;;;;5071966;28;20032;-79
2023/12/01 12:26:38;;;;;;;37.93;17.93;;;0.90;99.90;;;;;;5069397;28;20421;-77
2023/12/01 12:29:06;;;;;;;44.03;19.07;;;0.90;99.90;;;;;;5075223;28;20024;-80
2023/12/01 12:31:35;;;;;;;40.47;18.03;;;0.80;99.90;;;;;;5071280;28;20471;-77
2023/12/01 12:34:05;;;;;;;42.47;18.07;;;0.70;99.90;;;;;;5069360;28;20449;-82
2023/12/01 12:36:32;;;;;;;40.17;17.97;;;0.70;99.90;;;;;;5093181;28;20035;-80
2023/12/01 12:39:01;;;;;;;41.63;18.80;;;0.70;99.90;;;;;;5091687;28;20031;-78
2023/12/01 12:41:29;;;;;;;44.80;18.57;;;0.70;99.90;;;;;;5070832;28;20031;-78
2023/12/01 12:43:57;;;;;;;41.63;18.43;;;0.80;99.90;;;;;;5067204;27;20040;-80